sensor_id;sensor_type;location;lat;lon;timestamp;temperature;humidity
22069;DHT22;13887;57.196;-2.100;2024-03-06T00:00:32;8.39;88.56
22069;DHT22;13887;57.196;-2.100;2024-03-06T00:03:00;8.38;88.46
22069;DHT22;13887;57.196;-2.100;2024-03-06T00:05:27;8.35;88.64
22069;DHT22;13887;57.196;-2.100;2024-03-06T00:07:55;8.35;88.51
22069;DHT22;13887;57.196;-2.100;2024-03-06T00:10:22;8.34;88.60
22069;DHT22;13887;57.196;-2.100;2024-03-06T00:12:49;8.33;88.69
22069;DHT22;13887;57.196;-2.100;2024-03-06T00:15:16;8.32;88.67
22069;DHT22;13887;57.196;-2.100;2024-03-06T00:17:44;8.35;88.64
22069;DHT22;13887;57.196;-2.100;2024-03-06T00:20:11;8.33;88.62
22069;DHT22;13887;57.196;-2.100;2024-03-06T00:22:38;8.28;88.73
22069;DHT22;13887;57.196;-2.100;2024-03-06T00:25:06;8.28;88.80
22069;DHT22;13887;57.196;-2.100;2024-03-06T00:27:35;8.28;88.71
22069;DHT22;13887;57.196;-2.100;2024-03-06T00:30:03;8.26;88.86
22069;DHT22;13887;57.196;-2.100;2024-03-06T00:32:30;8.23;88.81
22069;DHT22;13887;57.196;-2.100;2024-03-06T00:34:57;8.23;88.96
22069;DHT22;13887;57.196;-2.100;2024-03-06T00:37:25;8.23;88.94
22069;DHT22;13887;57.196;-2.100;2024-03-06T00:39:52;8.21;89.05
22069;DHT22;13887;57.196;-2.100;2024-03-06T00:42:19;8.24;88.96
22069;DHT22;13887;57.196;-2.100;2024-03-06T00:44:46;8.19;89.16
22069;DHT22;13887;57.196;-2.100;2024-03-06T00:47:14;8.18;89.10
22069;DHT22;13887;57.196;-2.100;2024-03-06T00:49:41;8.21;89.05
22069;DHT22;13887;57.196;-2.100;2024-03-06T00:52:09;8.20;89.04
22069;DHT22;13887;57.196;-2.100;2024-03-06T00:54:36;8.17;89.05
22069;DHT22;13887;57.196;-2.100;2024-03-06T00:57:03;8.19;88.95
22069;DHT22;13887;57.196;-2.100;2024-03-06T00:59:31;8.16;89.04
22069;DHT22;13887;57.196;-2.100;2024-03-06T01:01:58;8.17;89.11
22069;DHT22;13887;57.196;-2.100;2024-03-06T01:04:25;8.15;89.12
22069;DHT22;13887;57.196;-2.100;2024-03-06T01:06:52;8.17;89.06
22069;DHT22;13887;57.196;-2.100;2024-03-06T01:09:20;8.14;89.07
22069;DHT22;13887;57.196;-2.100;2024-03-06T01:11:47;8.13;89.09
22069;DHT22;13887;57.196;-2.100;2024-03-06T01:14:15;8.13;89.05
22069;DHT22;13887;57.196;-2.100;2024-03-06T01:16:43;8.08;89.13
22069;DHT22;13887;57.196;-2.100;2024-03-06T01:19:10;8.09;89.11
22069;DHT22;13887;57.196;-2.100;2024-03-06T01:21:38;8.12;88.95
22069;DHT22;13887;57.196;-2.100;2024-03-06T01:24:05;8.05;89.13
22069;DHT22;13887;57.196;-2.100;2024-03-06T01:26:33;8.06;88.99
22069;DHT22;13887;57.196;-2.100;2024-03-06T01:29:00;8.03;89.10
22069;DHT22;13887;57.196;-2.100;2024-03-06T01:31:27;8.01;89.29
22069;DHT22;13887;57.196;-2.100;2024-03-06T01:33:55;8.01;89.08
22069;DHT22;13887;57.196;-2.100;2024-03-06T01:36:22;8.04;88.93
22069;DHT22;13887;57.196;-2.100;2024-03-06T01:38:49;8.06;88.83
22069;DHT22;13887;57.196;-2.100;2024-03-06T01:41:16;8.06;88.76
22069;DHT22;13887;57.196;-2.100;2024-03-06T01:43:44;8.05;88.74
22069;DHT22;13887;57.196;-2.100;2024-03-06T01:46:11;8.02;88.79
22069;DHT22;13887;57.196;-2.100;2024-03-06T01:48:39;8.02;88.72
22069;DHT22;13887;57.196;-2.100;2024-03-06T01:51:06;7.99;88.76
22069;DHT22;13887;57.196;-2.100;2024-03-06T01:53:34;7.98;88.67
22069;DHT22;13887;57.196;-2.100;2024-03-06T01:56:04;7.98;88.62
22069;DHT22;13887;57.196;-2.100;2024-03-06T01:58:31;7.99;88.48
22069;DHT22;13887;57.196;-2.100;2024-03-06T02:01:01;7.97;88.54
22069;DHT22;13887;57.196;-2.100;2024-03-06T02:03:31;7.96;88.73
22069;DHT22;13887;57.196;-2.100;2024-03-06T02:06:00;7.94;88.57
22069;DHT22;13887;57.196;-2.100;2024-03-06T02:08:29;7.98;88.47
22069;DHT22;13887;57.196;-2.100;2024-03-06T02:10:56;8.00;88.40
22069;DHT22;13887;57.196;-2.100;2024-03-06T02:13:24;7.96;88.55
22069;DHT22;13887;57.196;-2.100;2024-03-06T02:15:51;7.94;88.68
22069;DHT22;13887;57.196;-2.100;2024-03-06T02:18:18;7.93;88.67
22069;DHT22;13887;57.196;-2.100;2024-03-06T02:20:46;7.91;88.71
22069;DHT22;13887;57.196;-2.100;2024-03-06T02:23:14;7.92;88.60
22069;DHT22;13887;57.196;-2.100;2024-03-06T02:25:41;7.93;88.60
22069;DHT22;13887;57.196;-2.100;2024-03-06T02:28:09;7.91;88.64
22069;DHT22;13887;57.196;-2.100;2024-03-06T02:30:36;7.92;88.54
22069;DHT22;13887;57.196;-2.100;2024-03-06T02:33:04;7.91;88.55
22069;DHT22;13887;57.196;-2.100;2024-03-06T02:35:33;7.90;88.51
22069;DHT22;13887;57.196;-2.100;2024-03-06T02:38:05;7.91;88.55
22069;DHT22;13887;57.196;-2.100;2024-03-06T02:40:33;7.90;88.51
22069;DHT22;13887;57.196;-2.100;2024-03-06T02:43:00;7.92;88.47
22069;DHT22;13887;57.196;-2.100;2024-03-06T02:45:28;7.94;88.35
22069;DHT22;13887;57.196;-2.100;2024-03-06T02:47:55;7.92;88.57
22069;DHT22;13887;57.196;-2.100;2024-03-06T02:50:23;7.91;88.61
22069;DHT22;13887;57.196;-2.100;2024-03-06T02:52:50;7.91;88.57
22069;DHT22;13887;57.196;-2.100;2024-03-06T02:55:19;7.91;88.65
22069;DHT22;13887;57.196;-2.100;2024-03-06T02:57:46;7.88;88.72
22069;DHT22;13887;57.196;-2.100;2024-03-06T03:00:14;7.83;88.92
22069;DHT22;13887;57.196;-2.100;2024-03-06T03:02:43;7.81;89.08
22069;DHT22;13887;57.196;-2.100;2024-03-06T03:05:10;7.73;89.25
22069;DHT22;13887;57.196;-2.100;2024-03-06T03:07:37;7.76;89.21
22069;DHT22;13887;57.196;-2.100;2024-03-06T03:10:05;7.77;89.09
22069;DHT22;13887;57.196;-2.100;2024-03-06T03:12:33;7.77;89.16
22069;DHT22;13887;57.196;-2.100;2024-03-06T03:15:01;7.79;89.10
22069;DHT22;13887;57.196;-2.100;2024-03-06T03:17:28;7.78;89.18
22069;DHT22;13887;57.196;-2.100;2024-03-06T03:19:55;7.76;89.33
22069;DHT22;13887;57.196;-2.100;2024-03-06T03:22:22;7.77;89.27
22069;DHT22;13887;57.196;-2.100;2024-03-06T03:24:50;7.77;89.39
22069;DHT22;13887;57.196;-2.100;2024-03-06T03:27:17;7.73;89.57
22069;DHT22;13887;57.196;-2.100;2024-03-06T03:29:45;7.73;89.54
22069;DHT22;13887;57.196;-2.100;2024-03-06T03:32:12;7.76;89.52
22069;DHT22;13887;57.196;-2.100;2024-03-06T03:34:39;7.71;89.70
22069;DHT22;13887;57.196;-2.100;2024-03-06T03:37:06;7.67;89.93
22069;DHT22;13887;57.196;-2.100;2024-03-06T03:39:35;7.63;90.00
22069;DHT22;13887;57.196;-2.100;2024-03-06T03:42:03;7.67;89.86
22069;DHT22;13887;57.196;-2.100;2024-03-06T03:44:30;7.70;89.71
22069;DHT22;13887;57.196;-2.100;2024-03-06T03:46:57;7.71;89.62
22069;DHT22;13887;57.196;-2.100;2024-03-06T03:49:24;7.73;89.60
22069;DHT22;13887;57.196;-2.100;2024-03-06T03:51:52;7.69;89.70
22069;DHT22;13887;57.196;-2.100;2024-03-06T03:54:19;7.70;89.75
22069;DHT22;13887;57.196;-2.100;2024-03-06T03:56:46;7.70;89.62
22069;DHT22;13887;57.196;-2.100;2024-03-06T03:59:13;7.70;89.54
22069;DHT22;13887;57.196;-2.100;2024-03-06T04:01:41;7.71;89.43
22069;DHT22;13887;57.196;-2.100;2024-03-06T04:04:08;7.73;89.24
22069;DHT22;13887;57.196;-2.100;2024-03-06T04:06:35;7.72;89.31
22069;DHT22;13887;57.196;-2.100;2024-03-06T04:09:02;7.67;89.31
22069;DHT22;13887;57.196;-2.100;2024-03-06T04:11:31;7.61;89.47
22069;DHT22;13887;57.196;-2.100;2024-03-06T04:14:06;7.64;89.22
22069;DHT22;13887;57.196;-2.100;2024-03-06T04:16:34;7.64;89.15
22069;DHT22;13887;57.196;-2.100;2024-03-06T04:19:01;7.59;89.28
22069;DHT22;13887;57.196;-2.100;2024-03-06T04:21:30;7.59;89.28
22069;DHT22;13887;57.196;-2.100;2024-03-06T04:23:57;7.63;89.12
22069;DHT22;13887;57.196;-2.100;2024-03-06T04:26:25;7.64;89.06
22069;DHT22;13887;57.196;-2.100;2024-03-06T04:28:52;7.60;89.34
22069;DHT22;13887;57.196;-2.100;2024-03-06T04:31:19;7.63;89.13
22069;DHT22;13887;57.196;-2.100;2024-03-06T04:33:47;7.62;89.15
22069;DHT22;13887;57.196;-2.100;2024-03-06T04:36:14;7.63;89.23
22069;DHT22;13887;57.196;-2.100;2024-03-06T04:38:41;7.61;89.41
22069;DHT22;13887;57.196;-2.100;2024-03-06T04:41:08;7.58;89.56
22069;DHT22;13887;57.196;-2.100;2024-03-06T04:43:37;7.56;89.57
22069;DHT22;13887;57.196;-2.100;2024-03-06T04:46:05;7.59;89.34
22069;DHT22;13887;57.196;-2.100;2024-03-06T04:48:32;7.60;89.31
22069;DHT22;13887;57.196;-2.100;2024-03-06T04:50:59;7.61;89.29
22069;DHT22;13887;57.196;-2.100;2024-03-06T04:53:26;7.59;89.31
22069;DHT22;13887;57.196;-2.100;2024-03-06T04:55:54;7.61;89.15
22069;DHT22;13887;57.196;-2.100;2024-03-06T04:58:21;7.59;89.13
22069;DHT22;13887;57.196;-2.100;2024-03-06T05:00:48;7.59;89.07
22069;DHT22;13887;57.196;-2.100;2024-03-06T05:03:16;7.59;89.02
22069;DHT22;13887;57.196;-2.100;2024-03-06T05:05:57;7.61;88.96
22069;DHT22;13887;57.196;-2.100;2024-03-06T05:08:38;7.61;88.86
22069;DHT22;13887;57.196;-2.100;2024-03-06T05:11:19;7.62;88.80
22069;DHT22;13887;57.196;-2.100;2024-03-06T05:14:00;7.61;88.79
22069;DHT22;13887;57.196;-2.100;2024-03-06T05:16:41;7.61;88.80
22069;DHT22;13887;57.196;-2.100;2024-03-06T05:19:22;7.57;88.72
22069;DHT22;13887;57.196;-2.100;2024-03-06T05:22:03;7.59;88.60
22069;DHT22;13887;57.196;-2.100;2024-03-06T05:24:44;7.61;88.40
22069;DHT22;13887;57.196;-2.100;2024-03-06T05:27:25;7.61;88.26
22069;DHT22;13887;57.196;-2.100;2024-03-06T05:30:07;7.61;88.26
22069;DHT22;13887;57.196;-2.100;2024-03-06T05:32:50;7.61;88.32
22069;DHT22;13887;57.196;-2.100;2024-03-06T05:35:31;7.58;88.28
22069;DHT22;13887;57.196;-2.100;2024-03-06T05:38:12;7.59;88.15
22069;DHT22;13887;57.196;-2.100;2024-03-06T05:40:52;7.57;88.08
22069;DHT22;13887;57.196;-2.100;2024-03-06T05:43:34;7.57;87.86
22069;DHT22;13887;57.196;-2.100;2024-03-06T05:46:15;7.59;87.71
22069;DHT22;13887;57.196;-2.100;2024-03-06T05:48:56;7.56;87.53
22069;DHT22;13887;57.196;-2.100;2024-03-06T05:51:37;7.50;87.57
22069;DHT22;13887;57.196;-2.100;2024-03-06T05:54:22;7.53;87.59
22069;DHT22;13887;57.196;-2.100;2024-03-06T05:57:03;7.56;87.54
22069;DHT22;13887;57.196;-2.100;2024-03-06T05:59:44;7.56;87.56
22069;DHT22;13887;57.196;-2.100;2024-03-06T06:02:11;7.54;87.80
22069;DHT22;13887;57.196;-2.100;2024-03-06T06:04:38;7.50;87.85
22069;DHT22;13887;57.196;-2.100;2024-03-06T06:07:17;7.47;88.04
22069;DHT22;13887;57.196;-2.100;2024-03-06T06:09:44;7.50;87.97
22069;DHT22;13887;57.196;-2.100;2024-03-06T06:12:11;7.48;88.06
22069;DHT22;13887;57.196;-2.100;2024-03-06T06:14:39;7.45;88.11
22069;DHT22;13887;57.196;-2.100;2024-03-06T06:17:06;7.46;87.92
22069;DHT22;13887;57.196;-2.100;2024-03-06T06:19:33;7.49;87.81
22069;DHT22;13887;57.196;-2.100;2024-03-06T06:22:00;7.49;87.70
22069;DHT22;13887;57.196;-2.100;2024-03-06T06:24:27;7.50;87.54
22069;DHT22;13887;57.196;-2.100;2024-03-06T06:26:55;7.50;87.48
22069;DHT22;13887;57.196;-2.100;2024-03-06T06:29:22;7.50;87.34
22069;DHT22;13887;57.196;-2.100;2024-03-06T06:31:49;7.50;87.03
22069;DHT22;13887;57.196;-2.100;2024-03-06T06:34:16;7.50;87.17
22069;DHT22;13887;57.196;-2.100;2024-03-06T06:36:46;7.48;87.09
22069;DHT22;13887;57.196;-2.100;2024-03-06T06:39:13;7.52;87.06
22069;DHT22;13887;57.196;-2.100;2024-03-06T06:41:41;7.53;86.88
22069;DHT22;13887;57.196;-2.100;2024-03-06T06:44:08;7.53;86.79
22069;DHT22;13887;57.196;-2.100;2024-03-06T06:46:35;7.54;86.77
22069;DHT22;13887;57.196;-2.100;2024-03-06T06:49:02;7.53;86.71
22069;DHT22;13887;57.196;-2.100;2024-03-06T06:51:30;7.52;86.41
22069;DHT22;13887;57.196;-2.100;2024-03-06T06:53:57;7.52;86.32
22069;DHT22;13887;57.196;-2.100;2024-03-06T06:56:27;7.50;86.24
22069;DHT22;13887;57.196;-2.100;2024-03-06T06:58:54;7.53;86.41
22069;DHT22;13887;57.196;-2.100;2024-03-06T07:01:21;7.47;86.15
22069;DHT22;13887;57.196;-2.100;2024-03-06T07:03:49;7.46;85.76
22069;DHT22;13887;57.196;-2.100;2024-03-06T07:06:16;7.47;85.47
22069;DHT22;13887;57.196;-2.100;2024-03-06T07:08:43;7.47;85.31
22069;DHT22;13887;57.196;-2.100;2024-03-06T07:11:11;7.45;84.98
22069;DHT22;13887;57.196;-2.100;2024-03-06T07:13:38;7.44;84.71
22069;DHT22;13887;57.196;-2.100;2024-03-06T07:16:06;7.46;84.69
22069;DHT22;13887;57.196;-2.100;2024-03-06T07:18:33;7.48;84.63
22069;DHT22;13887;57.196;-2.100;2024-03-06T07:21:00;7.50;84.58
22069;DHT22;13887;57.196;-2.100;2024-03-06T07:23:27;7.50;84.16
22069;DHT22;13887;57.196;-2.100;2024-03-06T07:25:55;7.50;84.35
22069;DHT22;13887;57.196;-2.100;2024-03-06T07:28:25;7.47;84.39
22069;DHT22;13887;57.196;-2.100;2024-03-06T07:30:52;7.44;84.52
22069;DHT22;13887;57.196;-2.100;2024-03-06T07:33:20;7.45;84.52
22069;DHT22;13887;57.196;-2.100;2024-03-06T07:35:47;7.45;84.62
22069;DHT22;13887;57.196;-2.100;2024-03-06T07:38:14;7.46;84.68
22069;DHT22;13887;57.196;-2.100;2024-03-06T07:40:42;7.42;84.95
22069;DHT22;13887;57.196;-2.100;2024-03-06T07:43:10;7.39;85.23
22069;DHT22;13887;57.196;-2.100;2024-03-06T07:45:38;7.42;85.00
22069;DHT22;13887;57.196;-2.100;2024-03-06T07:48:05;7.39;85.16
22069;DHT22;13887;57.196;-2.100;2024-03-06T07:50:32;7.35;85.50
22069;DHT22;13887;57.196;-2.100;2024-03-06T07:53:00;7.37;85.32
22069;DHT22;13887;57.196;-2.100;2024-03-06T07:55:27;7.43;85.19
22069;DHT22;13887;57.196;-2.100;2024-03-06T07:57:54;7.45;85.15
22069;DHT22;13887;57.196;-2.100;2024-03-06T08:00:22;7.44;85.31
22069;DHT22;13887;57.196;-2.100;2024-03-06T08:02:50;7.41;85.42
22069;DHT22;13887;57.196;-2.100;2024-03-06T08:05:18;7.42;85.35
22069;DHT22;13887;57.196;-2.100;2024-03-06T08:07:45;7.39;85.51
22069;DHT22;13887;57.196;-2.100;2024-03-06T08:10:13;7.22;85.87
22069;DHT22;13887;57.196;-2.100;2024-03-06T08:12:41;7.16;86.12
22069;DHT22;13887;57.196;-2.100;2024-03-06T08:15:11;7.28;85.82
22069;DHT22;13887;57.196;-2.100;2024-03-06T08:17:39;7.34;85.60
22069;DHT22;13887;57.196;-2.100;2024-03-06T08:20:09;7.39;85.48
22069;DHT22;13887;57.196;-2.100;2024-03-06T08:22:41;7.42;85.40
22069;DHT22;13887;57.196;-2.100;2024-03-06T08:25:10;7.44;85.50
22069;DHT22;13887;57.196;-2.100;2024-03-06T08:27:40;7.42;85.68
22069;DHT22;13887;57.196;-2.100;2024-03-06T08:30:08;7.44;85.75
22069;DHT22;13887;57.196;-2.100;2024-03-06T08:32:36;7.42;85.81
22069;DHT22;13887;57.196;-2.100;2024-03-06T08:35:06;7.42;85.80
22069;DHT22;13887;57.196;-2.100;2024-03-06T08:37:34;7.44;85.74
22069;DHT22;13887;57.196;-2.100;2024-03-06T08:40:01;7.45;85.88
22069;DHT22;13887;57.196;-2.100;2024-03-06T08:42:29;7.45;85.79
22069;DHT22;13887;57.196;-2.100;2024-03-06T08:44:56;7.43;85.93
22069;DHT22;13887;57.196;-2.100;2024-03-06T08:47:23;7.41;85.71
22069;DHT22;13887;57.196;-2.100;2024-03-06T08:49:51;7.42;85.67
22069;DHT22;13887;57.196;-2.100;2024-03-06T08:52:20;7.41;85.87
22069;DHT22;13887;57.196;-2.100;2024-03-06T08:54:48;7.38;85.78
22069;DHT22;13887;57.196;-2.100;2024-03-06T08:57:15;7.41;85.62
22069;DHT22;13887;57.196;-2.100;2024-03-06T08:59:43;7.42;85.59
22069;DHT22;13887;57.196;-2.100;2024-03-06T09:02:15;7.44;85.55
22069;DHT22;13887;57.196;-2.100;2024-03-06T09:04:43;7.46;85.53
22069;DHT22;13887;57.196;-2.100;2024-03-06T09:07:10;7.45;85.54
22069;DHT22;13887;57.196;-2.100;2024-03-06T09:09:38;7.45;85.62
22069;DHT22;13887;57.196;-2.100;2024-03-06T09:12:06;7.42;85.96
22069;DHT22;13887;57.196;-2.100;2024-03-06T09:14:34;7.45;85.61
22069;DHT22;13887;57.196;-2.100;2024-03-06T09:17:01;7.47;85.43
22069;DHT22;13887;57.196;-2.100;2024-03-06T09:19:31;7.45;85.39
22069;DHT22;13887;57.196;-2.100;2024-03-06T09:21:59;7.46;85.44
22069;DHT22;13887;57.196;-2.100;2024-03-06T09:24:26;7.46;85.26
22069;DHT22;13887;57.196;-2.100;2024-03-06T09:26:56;7.46;85.13
22069;DHT22;13887;57.196;-2.100;2024-03-06T09:29:24;7.44;84.82
22069;DHT22;13887;57.196;-2.100;2024-03-06T09:31:52;7.45;84.72
22069;DHT22;13887;57.196;-2.100;2024-03-06T09:34:19;7.47;84.58
22069;DHT22;13887;57.196;-2.100;2024-03-06T09:36:49;7.46;84.59
22069;DHT22;13887;57.196;-2.100;2024-03-06T09:39:17;7.46;84.46
22069;DHT22;13887;57.196;-2.100;2024-03-06T09:41:47;7.48;84.23
22069;DHT22;13887;57.196;-2.100;2024-03-06T09:44:14;7.46;83.85
22069;DHT22;13887;57.196;-2.100;2024-03-06T09:46:45;7.46;83.94
22069;DHT22;13887;57.196;-2.100;2024-03-06T09:49:18;7.48;83.51
22069;DHT22;13887;57.196;-2.100;2024-03-06T09:51:49;7.46;83.49
22069;DHT22;13887;57.196;-2.100;2024-03-06T09:54:17;7.48;83.65
22069;DHT22;13887;57.196;-2.100;2024-03-06T09:56:47;7.48;83.60
22069;DHT22;13887;57.196;-2.100;2024-03-06T09:59:15;7.47;83.42
22069;DHT22;13887;57.196;-2.100;2024-03-06T10:01:56;7.50;83.55
22069;DHT22;13887;57.196;-2.100;2024-03-06T10:04:27;7.47;83.79
22069;DHT22;13887;57.196;-2.100;2024-03-06T10:06:59;7.47;83.56
22069;DHT22;13887;57.196;-2.100;2024-03-06T10:09:27;7.45;83.78
22069;DHT22;13887;57.196;-2.100;2024-03-06T10:11:54;7.44;83.77
22069;DHT22;13887;57.196;-2.100;2024-03-06T10:14:25;7.45;83.61
22069;DHT22;13887;57.196;-2.100;2024-03-06T10:16:57;7.42;83.58
22069;DHT22;13887;57.196;-2.100;2024-03-06T10:19:27;7.45;83.69
22069;DHT22;13887;57.196;-2.100;2024-03-06T10:21:55;7.45;83.57
22069;DHT22;13887;57.196;-2.100;2024-03-06T10:24:27;7.47;83.53
22069;DHT22;13887;57.196;-2.100;2024-03-06T10:26:57;7.46;83.65
22069;DHT22;13887;57.196;-2.100;2024-03-06T10:29:27;7.45;83.49
22069;DHT22;13887;57.196;-2.100;2024-03-06T10:31:59;7.45;83.77
22069;DHT22;13887;57.196;-2.100;2024-03-06T10:34:28;7.43;83.77
22069;DHT22;13887;57.196;-2.100;2024-03-06T10:36:57;7.40;83.32
22069;DHT22;13887;57.196;-2.100;2024-03-06T10:39:25;7.41;83.34
22069;DHT22;13887;57.196;-2.100;2024-03-06T10:41:54;7.40;83.65
22069;DHT22;13887;57.196;-2.100;2024-03-06T10:44:26;7.40;83.29
22069;DHT22;13887;57.196;-2.100;2024-03-06T10:47:02;7.40;83.07
22069;DHT22;13887;57.196;-2.100;2024-03-06T10:49:30;7.39;82.61
22069;DHT22;13887;57.196;-2.100;2024-03-06T10:52:05;7.39;82.46
22069;DHT22;13887;57.196;-2.100;2024-03-06T10:54:34;7.43;82.35
22069;DHT22;13887;57.196;-2.100;2024-03-06T10:57:04;7.44;82.20
22069;DHT22;13887;57.196;-2.100;2024-03-06T10:59:31;7.44;82.29
22069;DHT22;13887;57.196;-2.100;2024-03-06T11:01:59;7.42;82.52
22069;DHT22;13887;57.196;-2.100;2024-03-06T11:04:31;7.42;82.94
22069;DHT22;13887;57.196;-2.100;2024-03-06T11:07:03;7.42;83.25
22069;DHT22;13887;57.196;-2.100;2024-03-06T11:09:35;7.41;83.39
22069;DHT22;13887;57.196;-2.100;2024-03-06T11:12:03;7.41;83.68
22069;DHT22;13887;57.196;-2.100;2024-03-06T11:14:31;7.42;83.76
22069;DHT22;13887;57.196;-2.100;2024-03-06T11:17:08;7.39;84.31
22069;DHT22;13887;57.196;-2.100;2024-03-06T11:28:22;7.42;84.06
22069;DHT22;13887;57.196;-2.100;2024-03-06T11:31:02;7.43;84.24
22069;DHT22;13887;57.196;-2.100;2024-03-06T11:33:44;7.39;84.02
22069;DHT22;13887;57.196;-2.100;2024-03-06T11:38:50;7.42;83.71
22069;DHT22;13887;57.196;-2.100;2024-03-06T11:41:21;7.42;83.75
22069;DHT22;13887;57.196;-2.100;2024-03-06T11:43:53;7.42;83.64
22069;DHT22;13887;57.196;-2.100;2024-03-06T11:46:20;7.45;83.71
22069;DHT22;13887;57.196;-2.100;2024-03-06T11:48:52;7.45;83.60
22069;DHT22;13887;57.196;-2.100;2024-03-06T11:51:24;7.45;83.52
22069;DHT22;13887;57.196;-2.100;2024-03-06T11:53:51;7.45;83.65
22069;DHT22;13887;57.196;-2.100;2024-03-06T11:56:19;7.46;83.56
22069;DHT22;13887;57.196;-2.100;2024-03-06T11:58:47;7.49;83.48
22069;DHT22;13887;57.196;-2.100;2024-03-06T12:01:16;7.48;83.68
22069;DHT22;13887;57.196;-2.100;2024-03-06T12:03:47;7.47;83.84
22069;DHT22;13887;57.196;-2.100;2024-03-06T12:06:15;7.48;83.97
22069;DHT22;13887;57.196;-2.100;2024-03-06T12:08:44;7.50;83.91
22069;DHT22;13887;57.196;-2.100;2024-03-06T12:11:11;7.48;84.21
22069;DHT22;13887;57.196;-2.100;2024-03-06T12:13:41;7.50;84.15
22069;DHT22;13887;57.196;-2.100;2024-03-06T12:16:09;7.49;84.38
22069;DHT22;13887;57.196;-2.100;2024-03-06T12:18:38;7.47;84.19
22069;DHT22;13887;57.196;-2.100;2024-03-06T12:21:05;7.49;84.09
22069;DHT22;13887;57.196;-2.100;2024-03-06T12:23:32;7.52;84.01
22069;DHT22;13887;57.196;-2.100;2024-03-06T12:26:07;7.52;83.89
22069;DHT22;13887;57.196;-2.100;2024-03-06T12:28:38;7.53;83.87
22069;DHT22;13887;57.196;-2.100;2024-03-06T12:31:06;7.54;84.00
22069;DHT22;13887;57.196;-2.100;2024-03-06T12:33:34;7.56;84.03
22069;DHT22;13887;57.196;-2.100;2024-03-06T12:36:07;7.55;84.07
22069;DHT22;13887;57.196;-2.100;2024-03-06T12:38:38;7.59;83.87
22069;DHT22;13887;57.196;-2.100;2024-03-06T12:41:05;7.58;84.07
22069;DHT22;13887;57.196;-2.100;2024-03-06T12:43:33;7.59;84.04
22069;DHT22;13887;57.196;-2.100;2024-03-06T12:46:01;7.59;84.07
22069;DHT22;13887;57.196;-2.100;2024-03-06T12:48:31;7.61;84.13
22069;DHT22;13887;57.196;-2.100;2024-03-06T12:51:00;7.62;84.01
22069;DHT22;13887;57.196;-2.100;2024-03-06T12:53:32;7.64;83.94
22069;DHT22;13887;57.196;-2.100;2024-03-06T12:56:02;7.67;83.91
22069;DHT22;13887;57.196;-2.100;2024-03-06T12:58:30;7.68;83.93
22069;DHT22;13887;57.196;-2.100;2024-03-06T13:01:04;7.69;83.94
22069;DHT22;13887;57.196;-2.100;2024-03-06T13:03:32;7.70;83.84
22069;DHT22;13887;57.196;-2.100;2024-03-06T13:06:00;7.69;83.68
22069;DHT22;13887;57.196;-2.100;2024-03-06T13:08:27;7.65;83.56
22069;DHT22;13887;57.196;-2.100;2024-03-06T13:10:55;7.68;83.26
22069;DHT22;13887;57.196;-2.100;2024-03-06T13:13:23;7.68;83.34
22069;DHT22;13887;57.196;-2.100;2024-03-06T13:15:56;7.64;83.33
22069;DHT22;13887;57.196;-2.100;2024-03-06T13:18:23;7.65;83.28
22069;DHT22;13887;57.196;-2.100;2024-03-06T13:20:50;7.67;83.39
22069;DHT22;13887;57.196;-2.100;2024-03-06T13:23:18;7.69;83.42
22069;DHT22;13887;57.196;-2.100;2024-03-06T13:25:45;7.69;83.26
22069;DHT22;13887;57.196;-2.100;2024-03-06T13:28:12;7.70;83.05
22069;DHT22;13887;57.196;-2.100;2024-03-06T13:30:40;7.69;83.16
22069;DHT22;13887;57.196;-2.100;2024-03-06T13:33:07;7.70;82.87
22069;DHT22;13887;57.196;-2.100;2024-03-06T13:35:34;7.67;82.85
22069;DHT22;13887;57.196;-2.100;2024-03-06T13:38:02;7.68;82.97
22069;DHT22;13887;57.196;-2.100;2024-03-06T13:40:30;7.70;82.94
22069;DHT22;13887;57.196;-2.100;2024-03-06T13:42:57;7.72;82.94
22069;DHT22;13887;57.196;-2.100;2024-03-06T13:45:25;7.72;82.97
22069;DHT22;13887;57.196;-2.100;2024-03-06T13:47:53;7.72;82.98
22069;DHT22;13887;57.196;-2.100;2024-03-06T13:50:20;7.74;82.84
22069;DHT22;13887;57.196;-2.100;2024-03-06T13:52:51;7.76;82.59
22069;DHT22;13887;57.196;-2.100;2024-03-06T13:55:18;7.74;82.71
22069;DHT22;13887;57.196;-2.100;2024-03-06T13:57:45;7.73;82.94
22069;DHT22;13887;57.196;-2.100;2024-03-06T14:00:14;7.74;82.92
22069;DHT22;13887;57.196;-2.100;2024-03-06T14:02:47;7.74;82.93
22069;DHT22;13887;57.196;-2.100;2024-03-06T14:05:14;7.74;82.89
22069;DHT22;13887;57.196;-2.100;2024-03-06T14:07:42;7.73;82.81
22069;DHT22;13887;57.196;-2.100;2024-03-06T14:10:10;7.72;83.10
22069;DHT22;13887;57.196;-2.100;2024-03-06T14:12:38;7.72;82.97
22069;DHT22;13887;57.196;-2.100;2024-03-06T14:15:06;7.73;82.96
22069;DHT22;13887;57.196;-2.100;2024-03-06T14:17:40;7.73;82.87
22069;DHT22;13887;57.196;-2.100;2024-03-06T14:20:08;7.71;82.75
22069;DHT22;13887;57.196;-2.100;2024-03-06T14:22:35;7.69;82.71
22069;DHT22;13887;57.196;-2.100;2024-03-06T14:25:03;7.70;83.00
22069;DHT22;13887;57.196;-2.100;2024-03-06T14:27:31;7.70;82.79
22069;DHT22;13887;57.196;-2.100;2024-03-06T14:29:58;7.71;83.02
22069;DHT22;13887;57.196;-2.100;2024-03-06T14:32:26;7.72;82.91
22069;DHT22;13887;57.196;-2.100;2024-03-06T14:34:53;7.72;82.62
22069;DHT22;13887;57.196;-2.100;2024-03-06T14:37:20;7.70;82.66
22069;DHT22;13887;57.196;-2.100;2024-03-06T14:39:48;7.68;82.68
22069;DHT22;13887;57.196;-2.100;2024-03-06T14:42:15;7.70;82.71
22069;DHT22;13887;57.196;-2.100;2024-03-06T14:44:42;7.68;82.81
22069;DHT22;13887;57.196;-2.100;2024-03-06T14:47:13;7.69;82.60
22069;DHT22;13887;57.196;-2.100;2024-03-06T14:49:42;7.70;82.65
22069;DHT22;13887;57.196;-2.100;2024-03-06T14:52:12;7.68;82.58
22069;DHT22;13887;57.196;-2.100;2024-03-06T14:54:42;7.72;82.48
22069;DHT22;13887;57.196;-2.100;2024-03-06T14:57:11;7.71;82.49
22069;DHT22;13887;57.196;-2.100;2024-03-06T14:59:39;7.70;82.71
22069;DHT22;13887;57.196;-2.100;2024-03-06T15:02:06;7.70;82.70
22069;DHT22;13887;57.196;-2.100;2024-03-06T15:04:33;7.69;82.88
22069;DHT22;13887;57.196;-2.100;2024-03-06T15:07:01;7.64;83.05
22069;DHT22;13887;57.196;-2.100;2024-03-06T15:09:28;7.65;83.09
22069;DHT22;13887;57.196;-2.100;2024-03-06T15:11:55;7.67;83.13
22069;DHT22;13887;57.196;-2.100;2024-03-06T15:14:24;7.67;83.26
22069;DHT22;13887;57.196;-2.100;2024-03-06T15:16:53;7.64;83.29
22069;DHT22;13887;57.196;-2.100;2024-03-06T15:19:20;7.63;83.21
22069;DHT22;13887;57.196;-2.100;2024-03-06T15:21:47;7.65;83.10
22069;DHT22;13887;57.196;-2.100;2024-03-06T15:24:14;7.64;83.13
22069;DHT22;13887;57.196;-2.100;2024-03-06T15:26:42;7.64;83.19
22069;DHT22;13887;57.196;-2.100;2024-03-06T15:29:10;7.65;83.07
22069;DHT22;13887;57.196;-2.100;2024-03-06T15:31:39;7.67;83.21
22069;DHT22;13887;57.196;-2.100;2024-03-06T15:34:06;7.65;83.22
22069;DHT22;13887;57.196;-2.100;2024-03-06T15:36:33;7.63;83.16
22069;DHT22;13887;57.196;-2.100;2024-03-06T15:39:01;7.65;83.38
22069;DHT22;13887;57.196;-2.100;2024-03-06T15:41:29;7.67;83.40
22069;DHT22;13887;57.196;-2.100;2024-03-06T15:43:56;7.65;83.52
22069;DHT22;13887;57.196;-2.100;2024-03-06T15:46:23;7.64;83.57
22069;DHT22;13887;57.196;-2.100;2024-03-06T15:48:53;7.67;83.53
22069;DHT22;13887;57.196;-2.100;2024-03-06T15:51:20;7.68;83.78